sensor_id;sensor_type;location;lat;lon;timestamp;P1;durP1;ratioP1;P2;durP2;ratioP2
70126;SDS011;57491;42.694;23.314;2023-09-12T00:00:47;5.23;;;4.37;;
70126;SDS011;57491;42.694;23.314;2023-09-12T00:03:14;8.00;;;4.60;;
70126;SDS011;57491;42.694;23.314;2023-09-12T00:05:50;10.07;;;5.05;;
70126;SDS011;57491;42.694;23.314;2023-09-12T00:08:17;7.95;;;4.43;;
70126;SDS011;57491;42.694;23.314;2023-09-12T00:10:44;8.10;;;4.45;;
70126;SDS011;57491;42.694;23.314;2023-09-12T00:13:11;13.70;;;4.70;;
70126;SDS011;57491;42.694;23.314;2023-09-12T00:15:39;11.02;;;4.88;;
70126;SDS011;57491;42.694;23.314;2023-09-12T00:18:08;8.70;;;4.65;;
70126;SDS011;57491;42.694;23.314;2023-09-12T00:20:35;8.27;;;4.40;;
70126;SDS011;57491;42.694;23.314;2023-09-12T00:23:02;6.10;;;4.00;;
70126;SDS011;57491;42.694;23.314;2023-09-12T00:25:30;8.18;;;4.95;;
70126;SDS011;57491;42.694;23.314;2023-09-12T00:27:57;10.70;;;4.63;;
70126;SDS011;57491;42.694;23.314;2023-09-12T00:30:24;9.60;;;4.60;;
70126;SDS011;57491;42.694;23.314;2023-09-12T00:32:51;7.68;;;4.45;;
70126;SDS011;57491;42.694;23.314;2023-09-12T00:35:20;7.60;;;4.30;;
70126;SDS011;57491;42.694;23.314;2023-09-12T00:37:47;7.53;;;4.88;;
70126;SDS011;57491;42.694;23.314;2023-09-12T00:40:14;5.30;;;4.37;;
70126;SDS011;57491;42.694;23.314;2023-09-12T00:42:41;10.13;;;5.47;;
70126;SDS011;57491;42.694;23.314;2023-09-12T00:45:08;11.63;;;5.43;;
70126;SDS011;57491;42.694;23.314;2023-09-12T00:47:36;7.85;;;5.18;;
70126;SDS011;57491;42.694;23.314;2023-09-12T00:50:04;7.05;;;4.57;;
70126;SDS011;57491;42.694;23.314;2023-09-12T00:52:34;8.27;;;4.13;;
70126;SDS011;57491;42.694;23.314;2023-09-12T00:55:02;7.72;;;3.90;;
70126;SDS011;57491;42.694;23.314;2023-09-12T00:57:29;6.85;;;4.20;;
70126;SDS011;57491;42.694;23.314;2023-09-12T00:59:58;9.93;;;4.60;;
70126;SDS011;57491;42.694;23.314;2023-09-12T01:02:26;6.80;;;4.13;;
70126;SDS011;57491;42.694;23.314;2023-09-12T01:04:53;5.82;;;3.55;;
70126;SDS011;57491;42.694;23.314;2023-09-12T01:07:20;9.27;;;4.35;;
70126;SDS011;57491;42.694;23.314;2023-09-12T01:09:49;5.77;;;4.47;;
70126;SDS011;57491;42.694;23.314;2023-09-12T01:12:16;6.75;;;3.90;;
70126;SDS011;57491;42.694;23.314;2023-09-12T01:14:43;8.73;;;4.35;;
70126;SDS011;57491;42.694;23.314;2023-09-12T01:17:11;9.97;;;4.40;;
70126;SDS011;57491;42.694;23.314;2023-09-12T01:19:38;6.57;;;4.15;;
70126;SDS011;57491;42.694;23.314;2023-09-12T01:28:14;7.60;;;4.88;;
70126;SDS011;57491;42.694;23.314;2023-09-12T01:30:43;5.88;;;4.30;;
70126;SDS011;57491;42.694;23.314;2023-09-12T01:33:13;8.57;;;4.38;;
70126;SDS011;57491;42.694;23.314;2023-09-12T01:35:40;8.52;;;4.60;;
70126;SDS011;57491;42.694;23.314;2023-09-12T01:38:08;5.80;;;4.32;;
70126;SDS011;57491;42.694;23.314;2023-09-12T01:40:38;11.32;;;4.45;;
70126;SDS011;57491;42.694;23.314;2023-09-12T01:43:10;7.70;;;4.53;;
70126;SDS011;57491;42.694;23.314;2023-09-12T01:45:39;6.38;;;4.28;;
70126;SDS011;57491;42.694;23.314;2023-09-12T01:48:07;11.18;;;4.72;;
70126;SDS011;57491;42.694;23.314;2023-09-12T01:50:35;7.53;;;5.47;;
70126;SDS011;57491;42.694;23.314;2023-09-12T01:53:03;7.85;;;4.75;;
70126;SDS011;57491;42.694;23.314;2023-09-12T01:55:30;6.90;;;4.78;;
70126;SDS011;57491;42.694;23.314;2023-09-12T01:57:58;8.75;;;4.22;;
70126;SDS011;57491;42.694;23.314;2023-09-12T02:00:25;8.13;;;4.43;;
70126;SDS011;57491;42.694;23.314;2023-09-12T02:02:54;7.03;;;4.50;;
70126;SDS011;57491;42.694;23.314;2023-09-12T02:05:21;8.20;;;4.53;;
70126;SDS011;57491;42.694;23.314;2023-09-12T02:07:49;6.10;;;4.90;;
70126;SDS011;57491;42.694;23.314;2023-09-12T02:10:16;10.50;;;5.25;;
70126;SDS011;57491;42.694;23.314;2023-09-12T02:12:43;7.37;;;4.67;;
70126;SDS011;57491;42.694;23.314;2023-09-12T02:15:10;11.57;;;4.43;;
70126;SDS011;57491;42.694;23.314;2023-09-12T02:17:38;7.93;;;5.05;;
70126;SDS011;57491;42.694;23.314;2023-09-12T02:20:08;8.90;;;4.75;;
70126;SDS011;57491;42.694;23.314;2023-09-12T02:22:35;9.52;;;5.20;;
70126;SDS011;57491;42.694;23.314;2023-09-12T02:25:03;9.77;;;5.30;;
70126;SDS011;57491;42.694;23.314;2023-09-12T02:27:32;8.10;;;5.03;;
70126;SDS011;57491;42.694;23.314;2023-09-12T02:29:59;8.67;;;4.63;;
70126;SDS011;57491;42.694;23.314;2023-09-12T02:32:26;10.88;;;5.35;;
70126;SDS011;57491;42.694;23.314;2023-09-12T02:34:53;7.57;;;4.43;;
70126;SDS011;57491;42.694;23.314;2023-09-12T02:37:23;11.52;;;5.07;;
70126;SDS011;57491;42.694;23.314;2023-09-12T02:39:50;9.05;;;4.53;;
70126;SDS011;57491;42.694;23.314;2023-09-12T02:42:18;12.73;;;4.67;;
70126;SDS011;57491;42.694;23.314;2023-09-12T02:44:45;8.13;;;5.13;;
70126;SDS011;57491;42.694;23.314;2023-09-12T02:47:13;13.18;;;5.22;;
70126;SDS011;57491;42.694;23.314;2023-09-12T02:49:40;7.50;;;5.00;;
70126;SDS011;57491;42.694;23.314;2023-09-12T02:52:07;11.70;;;6.32;;
70126;SDS011;57491;42.694;23.314;2023-09-12T02:54:36;11.23;;;4.97;;
70126;SDS011;57491;42.694;23.314;2023-09-12T02:57:03;11.20;;;5.25;;
70126;SDS011;57491;42.694;23.314;2023-09-12T02:59:30;6.90;;;4.95;;
70126;SDS011;57491;42.694;23.314;2023-09-12T03:01:57;7.75;;;4.50;;
70126;SDS011;57491;42.694;23.314;2023-09-12T03:04:25;8.52;;;4.97;;
70126;SDS011;57491;42.694;23.314;2023-09-12T03:06:53;8.82;;;5.45;;
70126;SDS011;57491;42.694;23.314;2023-09-12T03:09:20;8.80;;;5.37;;
70126;SDS011;57491;42.694;23.314;2023-09-12T03:11:49;6.20;;;4.55;;
70126;SDS011;57491;42.694;23.314;2023-09-12T03:14:16;8.25;;;5.13;;
70126;SDS011;57491;42.694;23.314;2023-09-12T03:16:43;8.27;;;4.57;;
70126;SDS011;57491;42.694;23.314;2023-09-12T03:19:11;8.52;;;5.18;;
70126;SDS011;57491;42.694;23.314;2023-09-12T03:21:38;12.88;;;5.22;;
70126;SDS011;57491;42.694;23.314;2023-09-12T03:24:05;9.48;;;5.07;;
70126;SDS011;57491;42.694;23.314;2023-09-12T03:26:33;8.00;;;4.72;;
70126;SDS011;57491;42.694;23.314;2023-09-12T03:29:03;8.65;;;4.70;;
70126;SDS011;57491;42.694;23.314;2023-09-12T03:31:30;10.90;;;4.68;;
70126;SDS011;57491;42.694;23.314;2023-09-12T03:33:57;6.22;;;4.53;;
70126;SDS011;57491;42.694;23.314;2023-09-12T03:36:24;11.07;;;4.53;;
70126;SDS011;57491;42.694;23.314;2023-09-12T03:38:52;9.63;;;4.93;;
70126;SDS011;57491;42.694;23.314;2023-09-12T03:41:19;6.22;;;4.45;;
70126;SDS011;57491;42.694;23.314;2023-09-12T03:43:47;5.43;;;4.10;;
70126;SDS011;57491;42.694;23.314;2023-09-12T03:46:16;6.63;;;4.77;;
70126;SDS011;57491;42.694;23.314;2023-09-12T03:48:43;6.50;;;4.18;;
70126;SDS011;57491;42.694;23.314;2023-09-12T03:51:11;11.85;;;5.50;;
70126;SDS011;57491;42.694;23.314;2023-09-12T03:53:38;9.75;;;4.40;;
70126;SDS011;57491;42.694;23.314;2023-09-12T03:56:05;8.77;;;5.15;;
70126;SDS011;57491;42.694;23.314;2023-09-12T03:58:33;9.30;;;5.25;;
70126;SDS011;57491;42.694;23.314;2023-09-12T04:01:01;12.87;;;5.60;;
70126;SDS011;57491;42.694;23.314;2023-09-12T04:03:29;7.65;;;5.55;;
70126;SDS011;57491;42.694;23.314;2023-09-12T04:05:56;8.73;;;5.97;;
70126;SDS011;57491;42.694;23.314;2023-09-12T04:08:23;11.47;;;6.00;;
70126;SDS011;57491;42.694;23.314;2023-09-12T04:10:50;8.15;;;5.90;;
70126;SDS011;57491;42.694;23.314;2023-09-12T04:13:17;14.83;;;6.90;;
70126;SDS011;57491;42.694;23.314;2023-09-12T04:15:44;8.50;;;5.28;;
70126;SDS011;57491;42.694;23.314;2023-09-12T04:18:13;9.85;;;5.57;;
70126;SDS011;57491;42.694;23.314;2023-09-12T04:23:08;10.73;;;7.03;;
70126;SDS011;57491;42.694;23.314;2023-09-12T04:25:35;13.93;;;6.27;;
70126;SDS011;57491;42.694;23.314;2023-09-12T04:28:02;13.63;;;6.43;;
70126;SDS011;57491;42.694;23.314;2023-09-12T04:30:30;9.00;;;6.10;;
70126;SDS011;57491;42.694;23.314;2023-09-12T04:32:57;11.68;;;6.38;;
70126;SDS011;57491;42.694;23.314;2023-09-12T04:35:24;10.53;;;5.93;;
70126;SDS011;57491;42.694;23.314;2023-09-12T04:37:52;13.17;;;7.03;;
70126;SDS011;57491;42.694;23.314;2023-09-12T04:40:19;15.52;;;6.95;;
70126;SDS011;57491;42.694;23.314;2023-09-12T04:42:46;15.33;;;7.27;;
70126;SDS011;57491;42.694;23.314;2023-09-12T04:45:13;13.77;;;7.43;;
70126;SDS011;57491;42.694;23.314;2023-09-12T04:47:40;16.60;;;7.18;;
70126;SDS011;57491;42.694;23.314;2023-09-12T04:50:08;13.95;;;8.32;;
70126;SDS011;57491;42.694;23.314;2023-09-12T04:52:37;14.93;;;8.52;;
70126;SDS011;57491;42.694;23.314;2023-09-12T04:55:06;13.63;;;5.55;;
70126;SDS011;57491;42.694;23.314;2023-09-12T04:57:33;12.50;;;6.75;;
70126;SDS011;57491;42.694;23.314;2023-09-12T05:00:00;15.10;;;6.87;;
70126;SDS011;57491;42.694;23.314;2023-09-12T05:02:27;8.73;;;6.00;;
70126;SDS011;57491;42.694;23.314;2023-09-12T05:04:54;17.10;;;7.30;;
70126;SDS011;57491;42.694;23.314;2023-09-12T05:07:22;19.30;;;8.40;;
70126;SDS011;57491;42.694;23.314;2023-09-12T05:09:49;15.60;;;7.05;;
70126;SDS011;57491;42.694;23.314;2023-09-12T05:12:17;12.87;;;6.60;;
70126;SDS011;57491;42.694;23.314;2023-09-12T05:14:44;14.13;;;7.72;;
70126;SDS011;57491;42.694;23.314;2023-09-12T05:17:11;13.70;;;6.87;;
70126;SDS011;57491;42.694;23.314;2023-09-12T05:19:39;13.27;;;7.60;;
70126;SDS011;57491;42.694;23.314;2023-09-12T05:22:06;14.00;;;7.17;;
70126;SDS011;57491;42.694;23.314;2023-09-12T05:24:33;9.95;;;6.20;;
70126;SDS011;57491;42.694;23.314;2023-09-12T05:27:00;14.27;;;6.53;;
70126;SDS011;57491;42.694;23.314;2023-09-12T05:29:28;10.47;;;6.53;;
70126;SDS011;57491;42.694;23.314;2023-09-12T05:31:55;13.95;;;6.82;;
70126;SDS011;57491;42.694;23.314;2023-09-12T05:34:22;17.38;;;8.20;;
70126;SDS011;57491;42.694;23.314;2023-09-12T05:36:49;13.70;;;8.00;;
70126;SDS011;57491;42.694;23.314;2023-09-12T05:39:16;8.40;;;6.17;;
70126;SDS011;57491;42.694;23.314;2023-09-12T05:41:44;11.32;;;6.03;;
70126;SDS011;57491;42.694;23.314;2023-09-12T05:44:11;10.93;;;6.40;;
70126;SDS011;57491;42.694;23.314;2023-09-12T05:46:44;11.95;;;6.40;;
70126;SDS011;57491;42.694;23.314;2023-09-12T05:49:11;13.80;;;7.45;;
70126;SDS011;57491;42.694;23.314;2023-09-12T05:51:39;16.67;;;6.75;;
70126;SDS011;57491;42.694;23.314;2023-09-12T05:54:06;15.60;;;5.95;;
70126;SDS011;57491;42.694;23.314;2023-09-12T05:56:34;14.35;;;6.70;;
70126;SDS011;57491;42.694;23.314;2023-09-12T05:59:01;12.20;;;6.35;;
70126;SDS011;57491;42.694;23.314;2023-09-12T06:01:29;14.25;;;6.70;;
70126;SDS011;57491;42.694;23.314;2023-09-12T06:03:57;16.92;;;7.95;;
70126;SDS011;57491;42.694;23.314;2023-09-12T06:06:24;16.98;;;7.55;;
70126;SDS011;57491;42.694;23.314;2023-09-12T06:08:51;12.57;;;7.60;;
70126;SDS011;57491;42.694;23.314;2023-09-12T06:11:19;14.57;;;7.20;;
70126;SDS011;57491;42.694;23.314;2023-09-12T06:13:46;14.13;;;7.35;;
70126;SDS011;57491;42.694;23.314;2023-09-12T06:16:14;18.23;;;7.72;;
70126;SDS011;57491;42.694;23.314;2023-09-12T06:18:41;12.57;;;7.00;;
70126;SDS011;57491;42.694;23.314;2023-09-12T06:21:10;13.18;;;7.88;;
70126;SDS011;57491;42.694;23.314;2023-09-12T06:23:37;11.43;;;7.72;;
70126;SDS011;57491;42.694;23.314;2023-09-12T06:26:04;18.50;;;7.95;;
70126;SDS011;57491;42.694;23.314;2023-09-12T06:28:31;18.38;;;8.20;;
70126;SDS011;57491;42.694;23.314;2023-09-12T06:30:58;16.33;;;7.80;;
70126;SDS011;57491;42.694;23.314;2023-09-12T06:33:25;14.80;;;7.75;;
70126;SDS011;57491;42.694;23.314;2023-09-12T06:35:53;19.50;;;8.82;;
70126;SDS011;57491;42.694;23.314;2023-09-12T06:38:22;15.40;;;7.43;;
70126;SDS011;57491;42.694;23.314;2023-09-12T06:40:49;15.55;;;7.75;;
70126;SDS011;57491;42.694;23.314;2023-09-12T06:43:17;13.38;;;7.00;;
70126;SDS011;57491;42.694;23.314;2023-09-12T06:45:44;11.75;;;6.65;;
70126;SDS011;57491;42.694;23.314;2023-09-12T06:50:38;10.93;;;6.13;;
70126;SDS011;57491;42.694;23.314;2023-09-12T06:53:05;8.48;;;5.70;;
70126;SDS011;57491;42.694;23.314;2023-09-12T06:55:35;20.02;;;7.95;;
70126;SDS011;57491;42.694;23.314;2023-09-12T06:58:02;12.48;;;6.88;;
70126;SDS011;57491;42.694;23.314;2023-09-12T07:00:30;10.50;;;5.50;;
70126;SDS011;57491;42.694;23.314;2023-09-12T07:02:57;5.93;;;4.70;;
70126;SDS011;57491;42.694;23.314;2023-09-12T07:05:24;6.53;;;5.32;;
70126;SDS011;57491;42.694;23.314;2023-09-12T07:07:52;10.55;;;6.07;;
70126;SDS011;57491;42.694;23.314;2023-09-12T07:10:19;9.77;;;5.80;;
70126;SDS011;57491;42.694;23.314;2023-09-12T07:12:48;13.82;;;6.30;;
70126;SDS011;57491;42.694;23.314;2023-09-12T07:15:15;17.15;;;7.10;;
70126;SDS011;57491;42.694;23.314;2023-09-12T07:17:43;16.05;;;6.82;;
70126;SDS011;57491;42.694;23.314;2023-09-12T07:20:10;14.77;;;7.88;;
70126;SDS011;57491;42.694;23.314;2023-09-12T07:22:38;16.60;;;8.27;;
70126;SDS011;57491;42.694;23.314;2023-09-12T07:25:06;12.15;;;7.75;;
70126;SDS011;57491;42.694;23.314;2023-09-12T07:27:36;14.05;;;7.88;;
70126;SDS011;57491;42.694;23.314;2023-09-12T07:30:06;12.40;;;6.88;;
70126;SDS011;57491;42.694;23.314;2023-09-12T07:32:34;15.75;;;8.23;;
70126;SDS011;57491;42.694;23.314;2023-09-12T07:35:01;13.50;;;7.32;;
70126;SDS011;57491;42.694;23.314;2023-09-12T07:37:28;14.27;;;7.00;;
70126;SDS011;57491;42.694;23.314;2023-09-12T07:39:55;14.85;;;8.32;;
70126;SDS011;57491;42.694;23.314;2023-09-12T07:42:22;12.98;;;7.20;;
70126;SDS011;57491;42.694;23.314;2023-09-12T07:44:50;14.85;;;7.03;;
70126;SDS011;57491;42.694;23.314;2023-09-12T07:47:19;12.73;;;7.57;;
70126;SDS011;57491;42.694;23.314;2023-09-12T07:49:46;11.10;;;7.20;;
70126;SDS011;57491;42.694;23.314;2023-09-12T07:52:19;11.35;;;6.10;;
70126;SDS011;57491;42.694;23.314;2023-09-12T07:54:46;10.10;;;5.72;;
70126;SDS011;57491;42.694;23.314;2023-09-12T07:57:15;9.07;;;6.75;;
70126;SDS011;57491;42.694;23.314;2023-09-12T07:59:42;12.70;;;7.20;;
70126;SDS011;57491;42.694;23.314;2023-09-12T08:02:09;15.30;;;8.55;;
70126;SDS011;57491;42.694;23.314;2023-09-12T08:04:39;12.30;;;6.65;;
70126;SDS011;57491;42.694;23.314;2023-09-12T08:07:06;14.27;;;6.45;;
70126;SDS011;57491;42.694;23.314;2023-09-12T08:09:47;12.82;;;5.32;;
70126;SDS011;57491;42.694;23.314;2023-09-12T08:12:15;9.63;;;5.90;;
70126;SDS011;57491;42.694;23.314;2023-09-12T08:14:44;10.32;;;6.28;;
70126;SDS011;57491;42.694;23.314;2023-09-12T08:17:11;12.15;;;6.22;;
70126;SDS011;57491;42.694;23.314;2023-09-12T08:19:39;16.50;;;6.43;;
70126;SDS011;57491;42.694;23.314;2023-09-12T08:22:07;9.02;;;6.03;;
70126;SDS011;57491;42.694;23.314;2023-09-12T08:24:35;10.60;;;6.30;;
70126;SDS011;57491;42.694;23.314;2023-09-12T08:29:30;17.40;;;7.38;;
70126;SDS011;57491;42.694;23.314;2023-09-12T08:31:58;9.23;;;5.72;;
70126;SDS011;57491;42.694;23.314;2023-09-12T08:36:53;16.05;;;7.03;;
70126;SDS011;57491;42.694;23.314;2023-09-12T08:39:22;9.07;;;5.40;;
70126;SDS011;57491;42.694;23.314;2023-09-12T08:41:50;8.98;;;4.63;;
70126;SDS011;57491;42.694;23.314;2023-09-12T08:44:18;15.07;;;5.63;;
70126;SDS011;57491;42.694;23.314;2023-09-12T08:46:47;12.23;;;5.50;;
70126;SDS011;57491;42.694;23.314;2023-09-12T08:49:15;10.05;;;5.32;;
70126;SDS011;57491;42.694;23.314;2023-09-12T08:51:42;5.63;;;4.40;;
70126;SDS011;57491;42.694;23.314;2023-09-12T08:54:11;8.55;;;5.32;;
70126;SDS011;57491;42.694;23.314;2023-09-12T08:56:39;15.63;;;4.75;;
70126;SDS011;57491;42.694;23.314;2023-09-12T08:59:07;9.25;;;4.72;;
70126;SDS011;57491;42.694;23.314;2023-09-12T09:01:36;10.48;;;5.57;;
70126;SDS011;57491;42.694;23.314;2023-09-12T09:04:05;9.38;;;5.32;;
70126;SDS011;57491;42.694;23.314;2023-09-12T09:06:33;8.48;;;4.20;;
70126;SDS011;57491;42.694;23.314;2023-09-12T09:09:04;7.38;;;4.25;;
70126;SDS011;57491;42.694;23.314;2023-09-12T09:11:34;8.73;;;4.32;;
70126;SDS011;57491;42.694;23.314;2023-09-12T09:14:01;6.03;;;3.60;;
70126;SDS011;57491;42.694;23.314;2023-09-12T09:16:29;7.80;;;4.57;;
70126;SDS011;57491;42.694;23.314;2023-09-12T09:18:58;12.43;;;7.30;;
70126;SDS011;57491;42.694;23.314;2023-09-12T09:21:26;11.88;;;5.72;;
70126;SDS011;57491;42.694;23.314;2023-09-12T09:23:57;5.70;;;4.63;;
70126;SDS011;57491;42.694;23.314;2023-09-12T09:26:25;15.65;;;7.38;;
70126;SDS011;57491;42.694;23.314;2023-09-12T09:29:09;5.55;;;4.22;;
70126;SDS011;57491;42.694;23.314;2023-09-12T09:31:39;7.38;;;4.07;;
70126;SDS011;57491;42.694;23.314;2023-09-12T09:34:10;9.05;;;4.57;;
70126;SDS011;57491;42.694;23.314;2023-09-12T09:36:40;10.20;;;4.30;;
70126;SDS011;57491;42.694;23.314;2023-09-12T09:39:08;7.28;;;3.90;;
70126;SDS011;57491;42.694;23.314;2023-09-12T09:41:36;9.60;;;4.40;;
70126;SDS011;57491;42.694;23.314;2023-09-12T09:44:05;7.43;;;4.30;;
70126;SDS011;57491;42.694;23.314;2023-09-12T09:46:34;8.60;;;5.55;;
70126;SDS011;57491;42.694;23.314;2023-09-12T09:49:02;7.68;;;4.68;;
70126;SDS011;57491;42.694;23.314;2023-09-12T09:51:29;6.47;;;4.57;;
70126;SDS011;57491;42.694;23.314;2023-09-12T09:53:58;6.75;;;4.03;;
70126;SDS011;57491;42.694;23.314;2023-09-12T09:56:26;7.82;;;3.83;;
70126;SDS011;57491;42.694;23.314;2023-09-12T09:58:53;7.80;;;3.78;;
70126;SDS011;57491;42.694;23.314;2023-09-12T10:01:23;5.45;;;3.63;;
70126;SDS011;57491;42.694;23.314;2023-09-12T10:03:55;6.97;;;4.55;;
70126;SDS011;57491;42.694;23.314;2023-09-12T10:06:24;7.22;;;4.43;;
70126;SDS011;57491;42.694;23.314;2023-09-12T10:08:54;5.63;;;4.10;;
70126;SDS011;57491;42.694;23.314;2023-09-12T10:11:22;6.50;;;4.88;;
70126;SDS011;57491;42.694;23.314;2023-09-12T10:13:52;7.70;;;4.43;;
70126;SDS011;57491;42.694;23.314;2023-09-12T10:16:24;7.25;;;3.63;;
70126;SDS011;57491;42.694;23.314;2023-09-12T10:18:58;9.20;;;4.03;;
70126;SDS011;57491;42.694;23.314;2023-09-12T10:21:30;6.85;;;4.53;;
70126;SDS011;57491;42.694;23.314;2023-09-12T10:23:58;5.22;;;3.95;;
70126;SDS011;57491;42.694;23.314;2023-09-12T10:26:26;7.40;;;3.88;;
70126;SDS011;57491;42.694;23.314;2023-09-12T10:28:54;4.88;;;3.78;;
70126;SDS011;57491;42.694;23.314;2023-09-12T10:31:22;5.22;;;4.10;;
70126;SDS011;57491;42.694;23.314;2023-09-12T10:33:51;7.93;;;4.05;;
70126;SDS011;57491;42.694;23.314;2023-09-12T10:36:19;8.57;;;4.20;;
70126;SDS011;57491;42.694;23.314;2023-09-12T10:38:47;6.30;;;4.40;;
70126;SDS011;57491;42.694;23.314;2023-09-12T10:41:15;5.95;;;4.07;;
70126;SDS011;57491;42.694;23.314;2023-09-12T10:43:44;6.63;;;3.60;;
70126;SDS011;57491;42.694;23.314;2023-09-12T10:46:20;7.35;;;3.97;;
70126;SDS011;57491;42.694;23.314;2023-09-12T10:48:50;5.90;;;4.10;;
70126;SDS011;57491;42.694;23.314;2023-09-12T10:51:18;6.47;;;4.30;;
70126;SDS011;57491;42.694;23.314;2023-09-12T10:53:47;7.63;;;4.13;;
70126;SDS011;57491;42.694;23.314;2023-09-12T10:56:16;5.20;;;3.70;;
70126;SDS011;57491;42.694;23.314;2023-09-12T11:01:40;6.63;;;3.70;;
70126;SDS011;57491;42.694;23.314;2023-09-12T11:10:20;5.55;;;3.75;;
70126;SDS011;57491;42.694;23.314;2023-09-12T11:12:48;5.93;;;4.00;;
70126;SDS011;57491;42.694;23.314;2023-09-12T11:15:17;7.15;;;3.83;;
70126;SDS011;57491;42.694;23.314;2023-09-12T11:17:46;9.35;;;5.03;;
70126;SDS011;57491;42.694;23.314;2023-09-12T11:20:15;7.35;;;3.78;;
70126;SDS011;57491;42.694;23.314;2023-09-12T11:22:43;7.20;;;4.80;;
70126;SDS011;57491;42.694;23.314;2023-09-12T11:25:18;8.07;;;6.25;;
70126;SDS011;57491;42.694;23.314;2023-09-12T11:30:36;7.75;;;4.32;;
70126;SDS011;57491;42.694;23.314;2023-09-12T11:33:03;7.53;;;4.13;;
70126;SDS011;57491;42.694;23.314;2023-09-12T11:35:37;6.18;;;4.32;;
70126;SDS011;57491;42.694;23.314;2023-09-12T11:38:09;8.18;;;4.68;;
70126;SDS011;57491;42.694;23.314;2023-09-12T11:40:43;9.05;;;3.90;;
70126;SDS011;57491;42.694;23.314;2023-09-12T11:43:21;9.40;;;5.18;;
70126;SDS011;57491;42.694;23.314;2023-09-12T11:45:49;8.60;;;5.82;;
70126;SDS011;57491;42.694;23.314;2023-09-12T11:48:18;8.80;;;4.70;;
70126;SDS011;57491;42.694;23.314;2023-09-12T11:50:51;5.88;;;3.95;;
70126;SDS011;57491;42.694;23.314;2023-09-12T11:53:20;5.95;;;4.30;;
70126;SDS011;57491;42.694;23.314;2023-09-12T11:55:51;10.38;;;4.78;;
70126;SDS011;57491;42.694;23.314;2023-09-12T11:58:20;6.78;;;4.43;;
70126;SDS011;57491;42.694;23.314;2023-09-12T12:00:48;5.45;;;4.95;;
70126;SDS011;57491;42.694;23.314;2023-09-12T12:03:17;7.07;;;4.72;;
70126;SDS011;57491;42.694;23.314;2023-09-12T12:05:46;5.13;;;4.63;;
70126;SDS011;57491;42.694;23.314;2023-09-12T12:08:15;8.07;;;5.30;;
70126;SDS011;57491;42.694;23.314;2023-09-12T12:10:43;8.00;;;4.93;;
70126;SDS011;57491;42.694;23.314;2023-09-12T12:13:16;5.88;;;5.35;;
70126;SDS011;57491;42.694;23.314;2023-09-12T12:15:43;11.18;;;5.05;;
70126;SDS011;57491;42.694;23.314;2023-09-12T12:18:10;6.68;;;6.05;;
70126;SDS011;57491;42.694;23.314;2023-09-12T12:20:37;7.70;;;5.22;;
70126;SDS011;57491;42.694;23.314;2023-09-12T12:23:05;6.53;;;4.88;;
70126;SDS011;57491;42.694;23.314;2023-09-12T12:25:33;7.03;;;4.97;;
70126;SDS011;57491;42.694;23.314;2023-09-12T12:28:01;8.18;;;5.28;;
70126;SDS011;57491;42.694;23.314;2023-09-12T12:30:29;10.35;;;5.20;;
70126;SDS011;57491;42.694;23.314;2023-09-12T12:33:00;6.13;;;5.45;;
70126;SDS011;57491;42.694;23.314;2023-09-12T12:35:28;9.25;;;5.53;;
70126;SDS011;57491;42.694;23.314;2023-09-12T12:37:55;7.38;;;5.25;;
70126;SDS011;57491;42.694;23.314;2023-09-12T12:40:22;8.40;;;5.50;;
70126;SDS011;57491;42.694;23.314;2023-09-12T12:42:51;9.10;;;5.07;;
70126;SDS011;57491;42.694;23.314;2023-09-12T12:45:19;8.60;;;5.13;;
70126;SDS011;57491;42.694;23.314;2023-09-12T12:47:50;10.50;;;4.88;;
70126;SDS011;57491;42.694;23.314;2023-09-12T12:50:18;7.20;;;5.43;;
70126;SDS011;57491;42.694;23.314;2023-09-12T12:52:46;5.35;;;4.03;;
70126;SDS011;57491;42.694;23.314;2023-09-12T12:55:15;8.13;;;4.93;;
70126;SDS011;57491;42.694;23.314;2023-09-12T12:57:43;7.90;;;4.60;;
70126;SDS011;57491;42.694;23.314;2023-09-12T13:00:12;6.40;;;4.50;;
70126;SDS011;57491;42.694;23.314;2023-09-12T13:02:41;9.20;;;4.13;;
70126;SDS011;57491;42.694;23.314;2023-09-12T13:05:19;8.32;;;3.40;;
70126;SDS011;57491;42.694;23.314;2023-09-12T13:07:47;12.32;;;4.50;;
70126;SDS011;57491;42.694;23.314;2023-09-12T13:10:15;6.72;;;3.95;;
70126;SDS011;57491;42.694;23.314;2023-09-12T13:12:42;9.00;;;4.47;;
70126;SDS011;57491;42.694;23.314;2023-09-12T13:15:13;7.72;;;4.15;;
70126;SDS011;57491;42.694;23.314;2023-09-12T13:17:40;6.43;;;3.70;;
70126;SDS011;57491;42.694;23.314;2023-09-12T13:20:08;6.97;;;3.95;;
70126;SDS011;57491;42.694;23.314;2023-09-12T13:22:36;6.32;;;4.03;;
70126;SDS011;57491;42.694;23.314;2023-09-12T13:25:03;9.43;;;5.07;;
70126;SDS011;57491;42.694;23.314;2023-09-12T13:27:31;12.27;;;4.13;;
70126;SDS011;57491;42.694;23.314;2023-09-12T13:29:58;8.35;;;4.35;;
70126;SDS011;57491;42.694;23.314;2023-09-12T13:32:27;7.28;;;4.50;;
70126;SDS011;57491;42.694;23.314;2023-09-12T13:34:54;8.75;;;4.63;;
70126;SDS011;57491;42.694;23.314;2023-09-12T13:37:21;7.95;;;4.30;;
70126;SDS011;57491;42.694;23.314;2023-09-12T13:39:48;9.90;;;4.75;;
70126;SDS011;57491;42.694;23.314;2023-09-12T13:42:15;8.00;;;3.85;;
70126;SDS011;57491;42.694;23.314;2023-09-12T13:44:44;7.35;;;3.58;;
70126;SDS011;57491;42.694;23.314;2023-09-12T13:49:41;12.30;;;4.25;;
70126;SDS011;57491;42.694;23.314;2023-09-12T13:52:08;6.13;;;3.95;;
70126;SDS011;57491;42.694;23.314;2023-09-12T13:54:35;8.57;;;3.88;;
70126;SDS011;57491;42.694;23.314;2023-09-12T13:57:02;9.48;;;3.67;;
70126;SDS011;57491;42.694;23.314;2023-09-12T13:59:29;8.30;;;3.97;;
70126;SDS011;57491;42.694;23.314;2023-09-12T14:01:56;8.32;;;3.90;;
70126;SDS011;57491;42.694;23.314;2023-09-12T14:04:23;7.38;;;4.05;;
70126;SDS011;57491;42.694;23.314;2023-09-12T14:09:18;11.27;;;5.07;;
70126;SDS011;57491;42.694;23.314;2023-09-12T14:11:45;6.20;;;3.40;;
70126;SDS011;57491;42.694;23.314;2023-09-12T14:14:13;8.18;;;3.65;;
70126;SDS011;57491;42.694;23.314;2023-09-12T14:16:40;7.80;;;3.80;;
70126;SDS011;57491;42.694;23.314;2023-09-12T14:19:07;7.78;;;3.92;;
70126;SDS011;57491;42.694;23.314;2023-09-12T14:21:35;8.07;;;3.70;;
70126;SDS011;57491;42.694;23.314;2023-09-12T14:26:31;12.38;;;4.25;;
70126;SDS011;57491;42.694;23.314;2023-09-12T14:28:59;8.15;;;4.30;;
70126;SDS011;57491;42.694;23.314;2023-09-12T14:31:26;18.58;;;4.70;;
70126;SDS011;57491;42.694;23.314;2023-09-12T14:34:15;7.63;;;4.63;;
70126;SDS011;57491;42.694;23.314;2023-09-12T14:39:12;9.85;;;5.05;;
70126;SDS011;57491;42.694;23.314;2023-09-12T14:41:40;7.30;;;4.55;;
70126;SDS011;57491;42.694;23.314;2023-09-12T14:44:07;13.93;;;5.43;;
70126;SDS011;57491;42.694;23.314;2023-09-12T14:46:34;12.18;;;5.35;;
70126;SDS011;57491;42.694;23.314;2023-09-12T14:49:01;7.53;;;4.07;;
70126;SDS011;57491;42.694;23.314;2023-09-12T14:51:29;11.98;;;4.43;;
70126;SDS011;57491;42.694;23.314;2023-09-12T14:53:56;6.68;;;4.22;;
70126;SDS011;57491;42.694;23.314;2023-09-12T14:56:25;9.48;;;4.20;;
70126;SDS011;57491;42.694;23.314;2023-09-12T14:58:52;9.90;;;4.00;;
70126;SDS011;57491;42.694;23.314;2023-09-12T15:01:19;8.27;;;3.85;;
70126;SDS011;57491;42.694;23.314;2023-09-12T15:03:46;9.45;;;4.43;;
70126;SDS011;57491;42.694;23.314;2023-09-12T15:06:13;12.68;;;4.03;;
70126;SDS011;57491;42.694;23.314;2023-09-12T15:08:40;9.45;;;4.32;;
70126;SDS011;57491;42.694;23.314;2023-09-12T15:11:07;9.00;;;3.92;;